sensor_id;sensor_type;location;lat;lon;timestamp;temperature;humidity
40151;DHT22;25866;52.420;10.640;2022-09-09T00:03:57;15.00;99.90
40151;DHT22;25866;52.420;10.640;2022-09-09T00:07:00;15.00;99.90
40151;DHT22;25866;52.420;10.640;2022-09-09T00:09:27;15.00;99.90
40151;DHT22;25866;52.420;10.640;2022-09-09T00:17:47;15.00;99.90
40151;DHT22;25866;52.420;10.640;2022-09-09T00:21:07;15.00;99.90
40151;DHT22;25866;52.420;10.640;2022-09-09T00:23:14;15.10;99.90
40151;DHT22;25866;52.420;10.640;2022-09-09T00:25:57;15.00;99.90
40151;DHT22;25866;52.420;10.640;2022-09-09T00:28:26;15.00;99.90
40151;DHT22;25866;52.420;10.640;2022-09-09T00:30:52;14.90;99.90
40151;DHT22;25866;52.420;10.640;2022-09-09T00:33:23;14.90;99.90
40151;DHT22;25866;52.420;10.640;2022-09-09T00:35:56;14.90;99.90
40151;DHT22;25866;52.420;10.640;2022-09-09T00:38:38;14.80;99.90
40151;DHT22;25866;52.420;10.640;2022-09-09T00:41:21;14.80;99.90
40151;DHT22;25866;52.420;10.640;2022-09-09T00:44:24;14.80;99.90
40151;DHT22;25866;52.420;10.640;2022-09-09T00:47:26;14.80;99.90
40151;DHT22;25866;52.420;10.640;2022-09-09T00:53:30;14.80;99.90
40151;DHT22;25866;52.420;10.640;2022-09-09T00:56:13;14.80;99.90
40151;DHT22;25866;52.420;10.640;2022-09-09T00:58:43;14.80;99.90
40151;DHT22;25866;52.420;10.640;2022-09-09T01:01:16;14.80;99.90
40151;DHT22;25866;52.420;10.640;2022-09-09T01:03:53;14.80;99.90
40151;DHT22;25866;52.420;10.640;2022-09-09T01:11:26;14.80;99.90
40151;DHT22;25866;52.420;10.640;2022-09-09T01:13:58;14.70;99.90
40151;DHT22;25866;52.420;10.640;2022-09-09T01:16:26;14.70;99.90
40151;DHT22;25866;52.420;10.640;2022-09-09T01:18:54;14.70;99.90
40151;DHT22;25866;52.420;10.640;2022-09-09T01:26:41;14.70;99.90
40151;DHT22;25866;52.420;10.640;2022-09-09T01:29:12;14.60;99.90
40151;DHT22;25866;52.420;10.640;2022-09-09T01:31:41;14.70;99.90
40151;DHT22;25866;52.420;10.640;2022-09-09T01:34:15;14.70;99.90
40151;DHT22;25866;52.420;10.640;2022-09-09T01:37:07;14.70;99.90
40151;DHT22;25866;52.420;10.640;2022-09-09T01:39:36;14.60;99.90
40151;DHT22;25866;52.420;10.640;2022-09-09T01:42:06;14.60;99.90
40151;DHT22;25866;52.420;10.640;2022-09-09T01:44:34;14.60;99.90
40151;DHT22;25866;52.420;10.640;2022-09-09T01:47:01;14.60;99.90
40151;DHT22;25866;52.420;10.640;2022-09-09T01:49:27;14.60;99.90
40151;DHT22;25866;52.420;10.640;2022-09-09T01:51:54;14.60;99.90
40151;DHT22;25866;52.420;10.640;2022-09-09T01:54:29;14.60;99.90
40151;DHT22;25866;52.420;10.640;2022-09-09T01:57:23;14.60;99.90
40151;DHT22;25866;52.420;10.640;2022-09-09T02:00:11;14.50;99.90
40151;DHT22;25866;52.420;10.640;2022-09-09T02:03:07;14.50;99.90
40151;DHT22;25866;52.420;10.640;2022-09-09T02:08:42;14.50;99.90
40151;DHT22;25866;52.420;10.640;2022-09-09T02:13:40;14.50;99.90
40151;DHT22;25866;52.420;10.640;2022-09-09T02:16:34;14.40;99.90
40151;DHT22;25866;52.420;10.640;2022-09-09T02:19:15;14.40;99.90
40151;DHT22;25866;52.420;10.640;2022-09-09T02:21:56;14.40;99.90
40151;DHT22;25866;52.420;10.640;2022-09-09T02:24:24;14.40;99.90
40151;DHT22;25866;52.420;10.640;2022-09-09T02:26:53;14.40;99.90
40151;DHT22;25866;52.420;10.640;2022-09-09T02:29:39;14.40;99.90
40151;DHT22;25866;52.420;10.640;2022-09-09T02:32:10;14.40;99.90
40151;DHT22;25866;52.420;10.640;2022-09-09T02:34:44;14.40;99.90
40151;DHT22;25866;52.420;10.640;2022-09-09T02:37:12;14.40;99.90
40151;DHT22;25866;52.420;10.640;2022-09-09T02:39:38;14.40;99.90
40151;DHT22;25866;52.420;10.640;2022-09-09T02:42:05;14.40;99.90
40151;DHT22;25866;52.420;10.640;2022-09-09T02:44:30;14.40;99.90
40151;DHT22;25866;52.420;10.640;2022-09-09T02:56:15;14.30;99.90
40151;DHT22;25866;52.420;10.640;2022-09-09T02:58:33;14.40;99.90
40151;DHT22;25866;52.420;10.640;2022-09-09T03:00:59;14.40;99.90
40151;DHT22;25866;52.420;10.640;2022-09-09T03:03:26;14.40;99.90
40151;DHT22;25866;52.420;10.640;2022-09-09T03:05:52;14.40;99.90
40151;DHT22;25866;52.420;10.640;2022-09-09T03:08:18;14.40;99.90
40151;DHT22;25866;52.420;10.640;2022-09-09T03:10:44;14.40;99.90
40151;DHT22;25866;52.420;10.640;2022-09-09T03:13:09;14.40;99.90
40151;DHT22;25866;52.420;10.640;2022-09-09T03:15:35;14.40;99.90
40151;DHT22;25866;52.420;10.640;2022-09-09T03:18:01;14.40;99.90
40151;DHT22;25866;52.420;10.640;2022-09-09T03:20:28;14.40;99.90
40151;DHT22;25866;52.420;10.640;2022-09-09T03:22:54;14.40;99.90
40151;DHT22;25866;52.420;10.640;2022-09-09T03:25:22;14.30;99.90
40151;DHT22;25866;52.420;10.640;2022-09-09T03:27:49;14.30;99.90
40151;DHT22;25866;52.420;10.640;2022-09-09T03:30:15;14.30;99.90
40151;DHT22;25866;52.420;10.640;2022-09-09T03:32:41;14.30;99.90
40151;DHT22;25866;52.420;10.640;2022-09-09T03:35:07;14.30;99.90
40151;DHT22;25866;52.420;10.640;2022-09-09T03:37:34;14.30;99.90
40151;DHT22;25866;52.420;10.640;2022-09-09T03:39:59;14.30;99.90
40151;DHT22;25866;52.420;10.640;2022-09-09T03:42:25;14.30;99.90
40151;DHT22;25866;52.420;10.640;2022-09-09T03:44:51;14.30;99.90
40151;DHT22;25866;52.420;10.640;2022-09-09T03:47:21;14.30;99.90
40151;DHT22;25866;52.420;10.640;2022-09-09T03:49:49;14.30;99.90
40151;DHT22;25866;52.420;10.640;2022-09-09T03:52:15;14.30;99.90
40151;DHT22;25866;52.420;10.640;2022-09-09T03:54:41;14.30;99.90
40151;DHT22;25866;52.420;10.640;2022-09-09T03:57:09;14.30;99.90
40151;DHT22;25866;52.420;10.640;2022-09-09T03:59:35;14.30;99.90
40151;DHT22;25866;52.420;10.640;2022-09-09T04:02:01;14.30;99.90
40151;DHT22;25866;52.420;10.640;2022-09-09T04:04:27;14.30;99.90
40151;DHT22;25866;52.420;10.640;2022-09-09T04:06:53;14.30;99.90
40151;DHT22;25866;52.420;10.640;2022-09-09T04:09:19;14.30;99.90
40151;DHT22;25866;52.420;10.640;2022-09-09T04:11:45;14.20;99.90
40151;DHT22;25866;52.420;10.640;2022-09-09T04:14:12;14.20;99.90
40151;DHT22;25866;52.420;10.640;2022-09-09T04:16:38;14.20;99.90
40151;DHT22;25866;52.420;10.640;2022-09-09T04:19:04;14.20;99.90
40151;DHT22;25866;52.420;10.640;2022-09-09T04:21:30;14.20;99.90
40151;DHT22;25866;52.420;10.640;2022-09-09T04:23:56;14.20;99.90
40151;DHT22;25866;52.420;10.640;2022-09-09T04:26:22;14.20;99.90
40151;DHT22;25866;52.420;10.640;2022-09-09T04:28:48;14.10;99.90
40151;DHT22;25866;52.420;10.640;2022-09-09T04:31:19;14.20;99.90
40151;DHT22;25866;52.420;10.640;2022-09-09T04:33:45;14.10;99.90
40151;DHT22;25866;52.420;10.640;2022-09-09T04:36:12;14.20;99.90
40151;DHT22;25866;52.420;10.640;2022-09-09T04:38:38;14.20;99.90
40151;DHT22;25866;52.420;10.640;2022-09-09T04:41:05;14.20;99.90
40151;DHT22;25866;52.420;10.640;2022-09-09T04:43:31;14.20;99.90
40151;DHT22;25866;52.420;10.640;2022-09-09T04:45:57;14.20;99.90
40151;DHT22;25866;52.420;10.640;2022-09-09T04:48:24;14.30;99.90
40151;DHT22;25866;52.420;10.640;2022-09-09T04:50:55;14.30;99.90
40151;DHT22;25866;52.420;10.640;2022-09-09T04:53:21;14.40;99.90
40151;DHT22;25866;52.420;10.640;2022-09-09T04:55:47;14.40;99.90
40151;DHT22;25866;52.420;10.640;2022-09-09T04:58:14;14.40;99.90
40151;DHT22;25866;52.420;10.640;2022-09-09T05:00:39;14.40;99.90
40151;DHT22;25866;52.420;10.640;2022-09-09T05:03:06;14.40;99.90
40151;DHT22;25866;52.420;10.640;2022-09-09T05:05:34;14.40;99.90
40151;DHT22;25866;52.420;10.640;2022-09-09T05:08:02;14.30;99.90
40151;DHT22;25866;52.420;10.640;2022-09-09T05:10:27;14.40;99.90
40151;DHT22;25866;52.420;10.640;2022-09-09T05:12:53;14.40;99.90
40151;DHT22;25866;52.420;10.640;2022-09-09T05:15:19;14.40;99.90
40151;DHT22;25866;52.420;10.640;2022-09-09T05:17:46;14.50;99.90
40151;DHT22;25866;52.420;10.640;2022-09-09T05:20:12;14.50;99.90
40151;DHT22;25866;52.420;10.640;2022-09-09T05:22:37;14.60;99.90
40151;DHT22;25866;52.420;10.640;2022-09-09T05:25:03;14.60;99.90
40151;DHT22;25866;52.420;10.640;2022-09-09T05:27:29;14.60;99.90
40151;DHT22;25866;52.420;10.640;2022-09-09T05:29:57;14.70;99.90
40151;DHT22;25866;52.420;10.640;2022-09-09T05:32:23;14.70;99.90
40151;DHT22;25866;52.420;10.640;2022-09-09T05:34:49;14.80;99.90
40151;DHT22;25866;52.420;10.640;2022-09-09T05:37:15;14.80;99.90
40151;DHT22;25866;52.420;10.640;2022-09-09T05:39:42;14.90;99.90
40151;DHT22;25866;52.420;10.640;2022-09-09T05:42:07;14.90;99.90
40151;DHT22;25866;52.420;10.640;2022-09-09T05:44:33;14.90;99.90
40151;DHT22;25866;52.420;10.640;2022-09-09T05:46:59;15.00;99.90
40151;DHT22;25866;52.420;10.640;2022-09-09T05:49:25;15.00;99.90
40151;DHT22;25866;52.420;10.640;2022-09-09T05:51:50;15.10;99.90
40151;DHT22;25866;52.420;10.640;2022-09-09T05:54:16;15.10;99.90
40151;DHT22;25866;52.420;10.640;2022-09-09T05:56:42;15.10;99.90
40151;DHT22;25866;52.420;10.640;2022-09-09T05:59:08;15.20;99.90
40151;DHT22;25866;52.420;10.640;2022-09-09T06:01:36;15.20;99.90
40151;DHT22;25866;52.420;10.640;2022-09-09T06:04:03;15.20;99.90
40151;DHT22;25866;52.420;10.640;2022-09-09T06:06:34;15.20;99.90
40151;DHT22;25866;52.420;10.640;2022-09-09T06:09:03;15.30;99.90
40151;DHT22;25866;52.420;10.640;2022-09-09T06:11:32;15.30;99.90
40151;DHT22;25866;52.420;10.640;2022-09-09T06:13:59;15.30;99.90
40151;DHT22;25866;52.420;10.640;2022-09-09T06:16:26;15.30;99.90
40151;DHT22;25866;52.420;10.640;2022-09-09T06:18:56;15.40;99.90
40151;DHT22;25866;52.420;10.640;2022-09-09T06:21:33;15.40;99.90
40151;DHT22;25866;52.420;10.640;2022-09-09T06:24:00;15.50;99.90
40151;DHT22;25866;52.420;10.640;2022-09-09T06:26:31;15.50;99.90
40151;DHT22;25866;52.420;10.640;2022-09-09T06:28:57;15.60;99.90
40151;DHT22;25866;52.420;10.640;2022-09-09T06:31:26;15.60;99.90
40151;DHT22;25866;52.420;10.640;2022-09-09T06:33:53;15.70;99.90
40151;DHT22;25866;52.420;10.640;2022-09-09T06:36:23;15.60;99.90
40151;DHT22;25866;52.420;10.640;2022-09-09T06:38:49;15.60;99.90
40151;DHT22;25866;52.420;10.640;2022-09-09T06:41:16;15.60;99.90
40151;DHT22;25866;52.420;10.640;2022-09-09T06:43:44;15.60;99.90
40151;DHT22;25866;52.420;10.640;2022-09-09T06:46:18;15.60;99.90
40151;DHT22;25866;52.420;10.640;2022-09-09T06:48:44;15.70;99.90
40151;DHT22;25866;52.420;10.640;2022-09-09T06:51:13;15.70;99.90
40151;DHT22;25866;52.420;10.640;2022-09-09T06:53:41;15.70;99.90
40151;DHT22;25866;52.420;10.640;2022-09-09T06:58:42;15.90;99.90
40151;DHT22;25866;52.420;10.640;2022-09-09T07:01:13;15.90;99.90
40151;DHT22;25866;52.420;10.640;2022-09-09T07:03:39;16.00;99.90
40151;DHT22;25866;52.420;10.640;2022-09-09T07:06:06;16.10;99.90
40151;DHT22;25866;52.420;10.640;2022-09-09T07:08:33;16.20;99.90
40151;DHT22;25866;52.420;10.640;2022-09-09T07:11:03;16.30;99.90
40151;DHT22;25866;52.420;10.640;2022-09-09T07:13:30;16.40;99.90
40151;DHT22;25866;52.420;10.640;2022-09-09T07:16:07;16.50;99.90
40151;DHT22;25866;52.420;10.640;2022-09-09T07:18:33;16.60;99.90
40151;DHT22;25866;52.420;10.640;2022-09-09T07:21:00;16.60;99.90
40151;DHT22;25866;52.420;10.640;2022-09-09T07:23:27;16.70;99.90
40151;DHT22;25866;52.420;10.640;2022-09-09T07:25:54;16.80;99.90
40151;DHT22;25866;52.420;10.640;2022-09-09T07:28:20;16.90;99.90
40151;DHT22;25866;52.420;10.640;2022-09-09T07:30:55;17.00;99.90
40151;DHT22;25866;52.420;10.640;2022-09-09T07:33:23;17.10;99.90
40151;DHT22;25866;52.420;10.640;2022-09-09T07:35:49;17.20;99.90
40151;DHT22;25866;52.420;10.640;2022-09-09T07:38:15;17.20;99.90
40151;DHT22;25866;52.420;10.640;2022-09-09T07:40:41;17.30;99.90
40151;DHT22;25866;52.420;10.640;2022-09-09T07:43:07;17.40;99.90
40151;DHT22;25866;52.420;10.640;2022-09-09T07:45:33;17.30;99.90
40151;DHT22;25866;52.420;10.640;2022-09-09T07:48:00;17.30;99.90
40151;DHT22;25866;52.420;10.640;2022-09-09T07:50:25;17.30;99.90
40151;DHT22;25866;52.420;10.640;2022-09-09T07:52:52;17.20;99.90
40151;DHT22;25866;52.420;10.640;2022-09-09T07:55:19;17.20;99.90
40151;DHT22;25866;52.420;10.640;2022-09-09T07:57:45;17.30;99.90
40151;DHT22;25866;52.420;10.640;2022-09-09T08:00:12;17.30;99.90
40151;DHT22;25866;52.420;10.640;2022-09-09T08:02:38;17.50;99.90
40151;DHT22;25866;52.420;10.640;2022-09-09T08:05:04;17.60;99.90
40151;DHT22;25866;52.420;10.640;2022-09-09T08:07:31;17.70;99.90
40151;DHT22;25866;52.420;10.640;2022-09-09T08:09:57;17.70;99.90
40151;DHT22;25866;52.420;10.640;2022-09-09T08:12:22;17.70;99.90
40151;DHT22;25866;52.420;10.640;2022-09-09T08:14:48;17.70;99.90
40151;DHT22;25866;52.420;10.640;2022-09-09T08:17:14;17.70;99.90
40151;DHT22;25866;52.420;10.640;2022-09-09T08:19:40;17.70;99.90
40151;DHT22;25866;52.420;10.640;2022-09-09T08:22:05;17.70;99.90
40151;DHT22;25866;52.420;10.640;2022-09-09T08:24:31;17.70;99.90
40151;DHT22;25866;52.420;10.640;2022-09-09T08:26:57;17.70;99.90
40151;DHT22;25866;52.420;10.640;2022-09-09T08:29:23;17.80;99.90
40151;DHT22;25866;52.420;10.640;2022-09-09T08:31:53;18.00;99.90
40151;DHT22;25866;52.420;10.640;2022-09-09T08:34:20;18.30;99.90
40151;DHT22;25866;52.420;10.640;2022-09-09T08:36:47;18.40;99.90
40151;DHT22;25866;52.420;10.640;2022-09-09T08:39:15;18.60;99.90
40151;DHT22;25866;52.420;10.640;2022-09-09T08:44:46;18.80;99.90
40151;DHT22;25866;52.420;10.640;2022-09-09T08:49:58;18.90;99.90
40151;DHT22;25866;52.420;10.640;2022-09-09T08:52:51;18.80;99.90
40151;DHT22;25866;52.420;10.640;2022-09-09T08:57:57;18.70;99.90
40151;DHT22;25866;52.420;10.640;2022-09-09T09:00:43;18.90;99.90
40151;DHT22;25866;52.420;10.640;2022-09-09T09:03:19;19.10;99.90
40151;DHT22;25866;52.420;10.640;2022-09-09T09:11:06;19.70;99.90
40151;DHT22;25866;52.420;10.640;2022-09-09T09:14:01;19.70;99.90
40151;DHT22;25866;52.420;10.640;2022-09-09T09:17:19;19.70;99.90
40151;DHT22;25866;52.420;10.640;2022-09-09T09:19:19;19.60;99.90
40151;DHT22;25866;52.420;10.640;2022-09-09T09:22:34;19.60;99.90
40151;DHT22;25866;52.420;10.640;2022-09-09T09:27:35;19.80;99.90
40151;DHT22;25866;52.420;10.640;2022-09-09T09:30:12;19.80;99.90
40151;DHT22;25866;52.420;10.640;2022-09-09T09:32:41;19.80;99.90
40151;DHT22;25866;52.420;10.640;2022-09-09T09:35:13;19.90;99.90
40151;DHT22;25866;52.420;10.640;2022-09-09T09:37:41;20.00;99.90
40151;DHT22;25866;52.420;10.640;2022-09-09T09:40:14;20.10;99.90
40151;DHT22;25866;52.420;10.640;2022-09-09T09:42:59;20.20;99.90
40151;DHT22;25866;52.420;10.640;2022-09-09T09:45:44;20.30;99.90
40151;DHT22;25866;52.420;10.640;2022-09-09T09:48:11;20.50;99.90
40151;DHT22;25866;52.420;10.640;2022-09-09T09:50:55;20.50;99.90
40151;DHT22;25866;52.420;10.640;2022-09-09T09:55:59;20.60;99.90
40151;DHT22;25866;52.420;10.640;2022-09-09T09:58:31;20.70;99.90
40151;DHT22;25866;52.420;10.640;2022-09-09T10:00:59;20.70;99.90
40151;DHT22;25866;52.420;10.640;2022-09-09T10:03:31;20.70;99.90
40151;DHT22;25866;52.420;10.640;2022-09-09T10:05:57;20.70;99.90
40151;DHT22;25866;52.420;10.640;2022-09-09T10:08:24;20.60;99.90
40151;DHT22;25866;52.420;10.640;2022-09-09T10:11:02;20.30;99.90
40151;DHT22;25866;52.420;10.640;2022-09-09T10:16:32;20.10;99.90
40151;DHT22;25866;52.420;10.640;2022-09-09T10:19:13;20.00;99.90
40151;DHT22;25866;52.420;10.640;2022-09-09T10:27:11;19.70;99.90
40151;DHT22;25866;52.420;10.640;2022-09-09T10:30:14;19.60;99.90
40151;DHT22;25866;52.420;10.640;2022-09-09T10:35:34;20.00;99.90
40151;DHT22;25866;52.420;10.640;2022-09-09T10:38:25;20.30;99.90
40151;DHT22;25866;52.420;10.640;2022-09-09T10:46:52;20.90;99.90
40151;DHT22;25866;52.420;10.640;2022-09-09T10:55:14;21.00;99.90
40151;DHT22;25866;52.420;10.640;2022-09-09T10:57:47;21.10;99.90
40151;DHT22;25866;52.420;10.640;2022-09-09T11:00:19;21.10;99.90
40151;DHT22;25866;52.420;10.640;2022-09-09T11:03:10;21.00;99.90
40151;DHT22;25866;52.420;10.640;2022-09-09T11:05:50;20.80;99.90
40151;DHT22;25866;52.420;10.640;2022-09-09T11:08:20;20.80;99.90
40151;DHT22;25866;52.420;10.640;2022-09-09T11:11:19;20.80;99.90
40151;DHT22;25866;52.420;10.640;2022-09-09T11:19:32;21.40;99.90
40151;DHT22;25866;52.420;10.640;2022-09-09T11:24:49;21.40;99.90
40151;DHT22;25866;52.420;10.640;2022-09-09T11:27:22;21.20;99.90
40151;DHT22;25866;52.420;10.640;2022-09-09T11:30:13;21.00;99.90
40151;DHT22;25866;52.420;10.640;2022-09-09T11:33:08;20.90;99.90
40151;DHT22;25866;52.420;10.640;2022-09-09T11:36:00;20.70;99.90
40151;DHT22;25866;52.420;10.640;2022-09-09T11:38:47;20.60;99.90
40151;DHT22;25866;52.420;10.640;2022-09-09T11:41:14;20.50;99.90
40151;DHT22;25866;52.420;10.640;2022-09-09T11:43:46;20.40;99.90
40151;DHT22;25866;52.420;10.640;2022-09-09T11:46:14;20.40;99.90
40151;DHT22;25866;52.420;10.640;2022-09-09T11:48:44;20.30;99.90
40151;DHT22;25866;52.420;10.640;2022-09-09T11:51:24;20.30;99.90
40151;DHT22;25866;52.420;10.640;2022-09-09T11:56:30;20.20;99.90
40151;DHT22;25866;52.420;10.640;2022-09-09T11:59:00;20.10;99.90
40151;DHT22;25866;52.420;10.640;2022-09-09T12:01:37;20.10;99.90
40151;DHT22;25866;52.420;10.640;2022-09-09T12:04:16;19.90;99.90
40151;DHT22;25866;52.420;10.640;2022-09-09T12:06:58;19.70;99.90
40151;DHT22;25866;52.420;10.640;2022-09-09T12:12:23;19.20;99.90
40151;DHT22;25866;52.420;10.640;2022-09-09T12:17:50;19.10;99.90
40151;DHT22;25866;52.420;10.640;2022-09-09T12:20:18;19.10;99.90
40151;DHT22;25866;52.420;10.640;2022-09-09T12:22:59;19.10;99.90
40151;DHT22;25866;52.420;10.640;2022-09-09T12:25:53;19.10;99.90
40151;DHT22;25866;52.420;10.640;2022-09-09T12:34:48;19.40;99.90
40151;DHT22;25866;52.420;10.640;2022-09-09T12:36:55;19.50;99.90
40151;DHT22;25866;52.420;10.640;2022-09-09T12:39:30;19.60;99.90
40151;DHT22;25866;52.420;10.640;2022-09-09T12:41:57;19.70;99.90
40151;DHT22;25866;52.420;10.640;2022-09-09T12:44:26;19.80;99.90
40151;DHT22;25866;52.420;10.640;2022-09-09T12:46:56;19.90;99.90
40151;DHT22;25866;52.420;10.640;2022-09-09T12:49:29;19.90;99.90
40151;DHT22;25866;52.420;10.640;2022-09-09T12:52:05;20.10;99.90
40151;DHT22;25866;52.420;10.640;2022-09-09T12:54:35;20.10;99.90
40151;DHT22;25866;52.420;10.640;2022-09-09T12:57:02;20.10;99.90
40151;DHT22;25866;52.420;10.640;2022-09-09T12:59:37;20.20;99.90
40151;DHT22;25866;52.420;10.640;2022-09-09T13:02:10;20.20;99.90
40151;DHT22;25866;52.420;10.640;2022-09-09T13:04:36;20.10;99.90
40151;DHT22;25866;52.420;10.640;2022-09-09T13:07:09;20.00;99.90
40151;DHT22;25866;52.420;10.640;2022-09-09T13:09:35;19.90;99.90
40151;DHT22;25866;52.420;10.640;2022-09-09T13:12:01;19.80;99.90
40151;DHT22;25866;52.420;10.640;2022-09-09T13:14:32;19.70;99.90
40151;DHT22;25866;52.420;10.640;2022-09-09T13:17:02;19.60;99.90
40151;DHT22;25866;52.420;10.640;2022-09-09T13:19:35;19.50;99.90
40151;DHT22;25866;52.420;10.640;2022-09-09T13:24:47;19.20;99.90
40151;DHT22;25866;52.420;10.640;2022-09-09T13:27:34;19.10;99.90
40151;DHT22;25866;52.420;10.640;2022-09-09T13:30:00;19.00;99.90
40151;DHT22;25866;52.420;10.640;2022-09-09T13:32:26;18.90;99.90
40151;DHT22;25866;52.420;10.640;2022-09-09T13:34:57;18.90;99.90
40151;DHT22;25866;52.420;10.640;2022-09-09T13:37:34;19.00;99.90
40151;DHT22;25866;52.420;10.640;2022-09-09T13:40:02;19.10;99.90
40151;DHT22;25866;52.420;10.640;2022-09-09T13:42:31;19.20;99.90
40151;DHT22;25866;52.420;10.640;2022-09-09T13:44:58;19.30;99.90
40151;DHT22;25866;52.420;10.640;2022-09-09T13:47:33;19.40;99.90
40151;DHT22;25866;52.420;10.640;2022-09-09T13:50:21;19.50;99.90
40151;DHT22;25866;52.420;10.640;2022-09-09T13:52:48;19.50;99.90
40151;DHT22;25866;52.420;10.640;2022-09-09T13:55:15;19.60;99.90
40151;DHT22;25866;52.420;10.640;2022-09-09T13:57:53;19.60;99.90
40151;DHT22;25866;52.420;10.640;2022-09-09T14:00:20;19.80;99.90
40151;DHT22;25866;52.420;10.640;2022-09-09T14:02:47;19.90;99.90
40151;DHT22;25866;52.420;10.640;2022-09-09T14:05:13;19.90;99.90
40151;DHT22;25866;52.420;10.640;2022-09-09T14:07:39;20.10;99.90
40151;DHT22;25866;52.420;10.640;2022-09-09T14:10:07;20.40;99.90
40151;DHT22;25866;52.420;10.640;2022-09-09T14:12:33;20.50;99.90
40151;DHT22;25866;52.420;10.640;2022-09-09T14:14:58;20.60;99.90
40151;DHT22;25866;52.420;10.640;2022-09-09T14:17:25;20.60;99.90
40151;DHT22;25866;52.420;10.640;2022-09-09T14:19:55;20.40;99.90
40151;DHT22;25866;52.420;10.640;2022-09-09T14:22:21;20.20;99.90
40151;DHT22;25866;52.420;10.640;2022-09-09T14:24:47;20.10;99.90
40151;DHT22;25866;52.420;10.640;2022-09-09T14:27:13;19.90;99.90
40151;DHT22;25866;52.420;10.640;2022-09-09T14:29:39;19.90;99.90
40151;DHT22;25866;52.420;10.640;2022-09-09T14:32:05;19.80;99.90
40151;DHT22;25866;52.420;10.640;2022-09-09T14:34:30;19.60;99.90
40151;DHT22;25866;52.420;10.640;2022-09-09T14:36:58;19.60;99.90
40151;DHT22;25866;52.420;10.640;2022-09-09T14:39:24;19.60;99.90
40151;DHT22;25866;52.420;10.640;2022-09-09T14:41:50;19.70;99.90
40151;DHT22;25866;52.420;10.640;2022-09-09T14:44:15;19.80;99.90
40151;DHT22;25866;52.420;10.640;2022-09-09T14:46:44;19.90;99.90
40151;DHT22;25866;52.420;10.640;2022-09-09T14:49:10;20.00;99.90
40151;DHT22;25866;52.420;10.640;2022-09-09T14:51:36;20.10;99.90
40151;DHT22;25866;52.420;10.640;2022-09-09T14:54:02;20.10;99.90
40151;DHT22;25866;52.420;10.640;2022-09-09T14:56:30;20.10;99.90
40151;DHT22;25866;52.420;10.640;2022-09-09T14:58:58;20.10;99.90
40151;DHT22;25866;52.420;10.640;2022-09-09T15:01:24;20.10;99.90
40151;DHT22;25866;52.420;10.640;2022-09-09T15:04:03;20.00;99.90
40151;DHT22;25866;52.420;10.640;2022-09-09T15:06:32;19.90;99.90
40151;DHT22;25866;52.420;10.640;2022-09-09T15:08:59;19.70;99.90
40151;DHT22;25866;52.420;10.640;2022-09-09T15:11:34;19.70;99.90
40151;DHT22;25866;52.420;10.640;2022-09-09T15:14:07;19.70;99.90
40151;DHT22;25866;52.420;10.640;2022-09-09T15:16:33;19.60;99.90
40151;DHT22;25866;52.420;10.640;2022-09-09T15:19:01;19.60;99.90
40151;DHT22;25866;52.420;10.640;2022-09-09T15:21:29;19.50;99.90
40151;DHT22;25866;52.420;10.640;2022-09-09T15:23:56;19.50;99.90
40151;DHT22;25866;52.420;10.640;2022-09-09T15:26:22;19.40;99.90
40151;DHT22;25866;52.420;10.640;2022-09-09T15:28:49;19.40;99.90
40151;DHT22;25866;52.420;10.640;2022-09-09T15:31:19;19.30;99.90
40151;DHT22;25866;52.420;10.640;2022-09-09T15:33:58;19.30;99.90
40151;DHT22;25866;52.420;10.640;2022-09-09T15:36:29;19.30;99.90
40151;DHT22;25866;52.420;10.640;2022-09-09T15:39:00;19.30;99.90
40151;DHT22;25866;52.420;10.640;2022-09-09T15:41:28;19.30;99.90
40151;DHT22;25866;52.420;10.640;2022-09-09T15:43:55;19.20;99.90
40151;DHT22;25866;52.420;10.640;2022-09-09T15:46:28;19.20;99.90
40151;DHT22;25866;52.420;10.640;2022-09-09T15:48:56;19.20;99.90
40151;DHT22;25866;52.420;10.640;2022-09-09T15:51:23;19.20;99.90
40151;DHT22;25866;52.420;10.640;2022-09-09T15:53:57;19.20;99.90
40151;DHT22;25866;52.420;10.640;2022-09-09T15:56:24;19.30;99.90
40151;DHT22;25866;52.420;10.640;2022-09-09T15:58:50;19.30;99.90
40151;DHT22;25866;52.420;10.640;2022-09-09T16:01:18;19.40;99.90
40151;DHT22;25866;52.420;10.640;2022-09-09T16:03:44;19.40;99.90
40151;DHT22;25866;52.420;10.640;2022-09-09T16:06:22;19.50;99.90
40151;DHT22;25866;52.420;10.640;2022-09-09T16:08:51;19.50;99.90
40151;DHT22;25866;52.420;10.640;2022-09-09T16:11:22;19.50;99.90
40151;DHT22;25866;52.420;10.640;2022-09-09T16:13:50;19.50;99.90
40151;DHT22;25866;52.420;10.640;2022-09-09T16:16:18;19.50;99.90
40151;DHT22;25866;52.420;10.640;2022-09-09T16:18:47;19.50;99.90
40151;DHT22;25866;52.420;10.640;2022-09-09T16:21:34;19.50;99.90
40151;DHT22;25866;52.420;10.640;2022-09-09T16:24:02;19.50;99.90
40151;DHT22;25866;52.420;10.640;2022-09-09T16:26:31;19.40;99.90
40151;DHT22;25866;52.420;10.640;2022-09-09T16:28:57;19.40;99.90
40151;DHT22;25866;52.420;10.640;2022-09-09T16:31:25;19.40;99.90
40151;DHT22;25866;52.420;10.640;2022-09-09T16:33:51;19.50;99.90
40151;DHT22;25866;52.420;10.640;2022-09-09T16:36:22;19.50;99.90
40151;DHT22;25866;52.420;10.640;2022-09-09T16:38:52;19.50;99.90
40151;DHT22;25866;52.420;10.640;2022-09-09T16:41:19;19.50;99.90
40151;DHT22;25866;52.420;10.640;2022-09-09T16:43:45;19.50;99.90
40151;DHT22;25866;52.420;10.640;2022-09-09T16:46:16;19.50;99.90
40151;DHT22;25866;52.420;10.640;2022-09-09T16:48:43;19.50;99.90
40151;DHT22;25866;52.420;10.640;2022-09-09T16:51:21;19.50;99.90
40151;DHT22;25866;52.420;10.640;2022-09-09T16:53:49;19.40;99.90
40151;DHT22;25866;52.420;10.640;2022-09-09T16:56:18;19.40;99.90
40151;DHT22;25866;52.420;10.640;2022-09-09T16:58:54;19.30;99.90
40151;DHT22;25866;52.420;10.640;2022-09-09T17:01:21;19.20;99.90
40151;DHT22;25866;52.420;10.640;2022-09-09T17:03:47;19.20;99.90
40151;DHT22;25866;52.420;10.640;2022-09-09T17:06:14;19.20;99.90
40151;DHT22;25866;52.420;10.640;2022-09-09T17:08:41;19.10;99.90
40151;DHT22;25866;52.420;10.640;2022-09-09T17:11:18;19.10;99.90
40151;DHT22;25866;52.420;10.640;2022-09-09T17:13:45;19.00;99.90
40151;DHT22;25866;52.420;10.640;2022-09-09T17:16:13;18.90;99.90
40151;DHT22;25866;52.420;10.640;2022-09-09T17:18:39;18.90;99.90
40151;DHT22;25866;52.420;10.640;2022-09-09T17:21:12;18.80;99.90
40151;DHT22;25866;52.420;10.640;2022-09-09T17:23:40;18.80;99.90